sensor_id;sensor_type;location;lat;lon;timestamp;temperature;humidity
3226;DHT22;1625;49.884;8.666;2022-12-22T06:57:10;11.00;99.90
3226;DHT22;1625;49.884;8.666;2022-12-22T06:59:36;11.00;99.90
3226;DHT22;1625;49.884;8.666;2022-12-22T07:02:01;11.10;99.90
3226;DHT22;1625;49.884;8.666;2022-12-22T07:14:58;11.30;99.90
3226;DHT22;1625;49.884;8.666;2022-12-22T07:17:27;11.40;99.90
3226;DHT22;1625;49.884;8.666;2022-12-22T07:19:52;11.60;99.90
3226;DHT22;1625;49.884;8.666;2022-12-22T07:22:18;11.60;99.90
3226;DHT22;1625;49.884;8.666;2022-12-22T07:24:43;11.50;99.90
3226;DHT22;1625;49.884;8.666;2022-12-22T07:27:09;11.50;99.90
3226;DHT22;1625;49.884;8.666;2022-12-22T07:29:35;11.40;99.90
3226;DHT22;1625;49.884;8.666;2022-12-22T07:32:01;11.30;99.90
3226;DHT22;1625;49.884;8.666;2022-12-22T07:34:26;11.30;99.90
3226;DHT22;1625;49.884;8.666;2022-12-22T07:36:52;11.20;99.90
3226;DHT22;1625;49.884;8.666;2022-12-22T07:39:17;11.20;99.90
3226;DHT22;1625;49.884;8.666;2022-12-22T07:41:43;11.20;99.90
3226;DHT22;1625;49.884;8.666;2022-12-22T07:44:27;11.20;99.90
3226;DHT22;1625;49.884;8.666;2022-12-22T07:46:53;11.20;99.90
3226;DHT22;1625;49.884;8.666;2022-12-22T07:49:18;11.10;99.90
3226;DHT22;1625;49.884;8.666;2022-12-22T07:52:03;11.20;99.90
3226;DHT22;1625;49.884;8.666;2022-12-22T07:54:28;11.20;99.90
3226;DHT22;1625;49.884;8.666;2022-12-22T07:56:54;11.20;99.90
3226;DHT22;1625;49.884;8.666;2022-12-22T07:59:19;11.20;99.90
3226;DHT22;1625;49.884;8.666;2022-12-22T08:01:45;11.10;99.90
3226;DHT22;1625;49.884;8.666;2022-12-22T08:04:12;11.20;99.90
3226;DHT22;1625;49.884;8.666;2022-12-22T08:06:37;11.20;99.90
3226;DHT22;1625;49.884;8.666;2022-12-22T08:09:04;11.20;99.90
3226;DHT22;1625;49.884;8.666;2022-12-22T08:11:30;11.20;99.90
3226;DHT22;1625;49.884;8.666;2022-12-22T08:13:56;11.30;99.90
3226;DHT22;1625;49.884;8.666;2022-12-22T08:16:21;11.30;99.90
3226;DHT22;1625;49.884;8.666;2022-12-22T08:18:47;11.30;99.90
3226;DHT22;1625;49.884;8.666;2022-12-22T08:21:14;11.30;99.90
3226;DHT22;1625;49.884;8.666;2022-12-22T08:23:40;11.40;99.90
3226;DHT22;1625;49.884;8.666;2022-12-22T08:28:49;11.50;99.90
3226;DHT22;1625;49.884;8.666;2022-12-22T08:31:16;11.60;99.90
3226;DHT22;1625;49.884;8.666;2022-12-22T08:33:41;11.60;99.90
3226;DHT22;1625;49.884;8.666;2022-12-22T08:36:13;11.60;99.90
3226;DHT22;1625;49.884;8.666;2022-12-22T08:38:40;11.60;99.90
3226;DHT22;1625;49.884;8.666;2022-12-22T08:41:11;11.60;99.90
3226;DHT22;1625;49.884;8.666;2022-12-22T08:43:38;11.60;99.90
3226;DHT22;1625;49.884;8.666;2022-12-22T08:46:04;11.60;99.90
3226;DHT22;1625;49.884;8.666;2022-12-22T08:48:29;11.70;99.90
3226;DHT22;1625;49.884;8.666;2022-12-22T08:50:55;11.60;99.90
3226;DHT22;1625;49.884;8.666;2022-12-22T08:53:21;11.60;99.90
3226;DHT22;1625;49.884;8.666;2022-12-22T08:55:53;11.60;99.90
3226;DHT22;1625;49.884;8.666;2022-12-22T08:58:20;11.60;99.90
3226;DHT22;1625;49.884;8.666;2022-12-22T09:00:54;11.60;99.90
3226;DHT22;1625;49.884;8.666;2022-12-22T09:03:31;11.60;99.90
3226;DHT22;1625;49.884;8.666;2022-12-22T09:06:00;11.60;99.90
3226;DHT22;1625;49.884;8.666;2022-12-22T09:08:26;11.60;99.90
3226;DHT22;1625;49.884;8.666;2022-12-22T09:10:51;11.70;99.90
3226;DHT22;1625;49.884;8.666;2022-12-22T09:13:17;11.70;99.90
3226;DHT22;1625;49.884;8.666;2022-12-22T09:15:43;11.60;99.90
3226;DHT22;1625;49.884;8.666;2022-12-22T09:18:08;11.70;99.90
3226;DHT22;1625;49.884;8.666;2022-12-22T09:20:34;11.70;99.90
3226;DHT22;1625;49.884;8.666;2022-12-22T09:22:59;11.70;99.90
3226;DHT22;1625;49.884;8.666;2022-12-22T09:25:25;11.70;99.90
3226;DHT22;1625;49.884;8.666;2022-12-22T09:27:51;11.70;99.90
3226;DHT22;1625;49.884;8.666;2022-12-22T09:30:16;11.70;99.90
3226;DHT22;1625;49.884;8.666;2022-12-22T09:32:42;11.70;99.90
3226;DHT22;1625;49.884;8.666;2022-12-22T09:35:07;11.60;99.90
3226;DHT22;1625;49.884;8.666;2022-12-22T09:37:33;11.70;99.90
3226;DHT22;1625;49.884;8.666;2022-12-22T09:39:59;11.70;99.90
3226;DHT22;1625;49.884;8.666;2022-12-22T09:42:24;11.60;99.90
3226;DHT22;1625;49.884;8.666;2022-12-22T09:44:50;11.60;99.90
3226;DHT22;1625;49.884;8.666;2022-12-22T09:47:29;11.60;99.90
3226;DHT22;1625;49.884;8.666;2022-12-22T09:49:56;11.70;99.90
3226;DHT22;1625;49.884;8.666;2022-12-22T09:55:02;11.70;99.90
3226;DHT22;1625;49.884;8.666;2022-12-22T09:57:30;11.70;99.90
3226;DHT22;1625;49.884;8.666;2022-12-22T10:00:13;11.70;99.90
3226;DHT22;1625;49.884;8.666;2022-12-22T10:02:55;11.80;99.90
3226;DHT22;1625;49.884;8.666;2022-12-22T10:08:00;11.80;99.90
3226;DHT22;1625;49.884;8.666;2022-12-22T10:10:29;11.80;99.90
3226;DHT22;1625;49.884;8.666;2022-12-22T10:12:58;11.80;99.90
3226;DHT22;1625;49.884;8.666;2022-12-22T10:15:24;11.80;99.90
3226;DHT22;1625;49.884;8.666;2022-12-22T10:17:52;11.80;99.90
3226;DHT22;1625;49.884;8.666;2022-12-22T10:20:25;11.80;99.90
3226;DHT22;1625;49.884;8.666;2022-12-22T10:23:01;11.80;99.90
3226;DHT22;1625;49.884;8.666;2022-12-22T10:25:40;11.80;99.90
3226;DHT22;1625;49.884;8.666;2022-12-22T10:28:11;11.80;99.90
3226;DHT22;1625;49.884;8.666;2022-12-22T10:30:39;11.80;99.90
3226;DHT22;1625;49.884;8.666;2022-12-22T10:33:13;11.80;99.90
3226;DHT22;1625;49.884;8.666;2022-12-22T10:38:29;12.00;99.90
3226;DHT22;1625;49.884;8.666;2022-12-22T10:41:13;12.00;99.90
3226;DHT22;1625;49.884;8.666;2022-12-22T10:44:00;12.00;99.90
3226;DHT22;1625;49.884;8.666;2022-12-22T10:49:17;12.10;99.90
3226;DHT22;1625;49.884;8.666;2022-12-22T10:51:46;12.10;99.90
3226;DHT22;1625;49.884;8.666;2022-12-22T10:54:26;12.10;99.90
3226;DHT22;1625;49.884;8.666;2022-12-22T10:59:24;11.90;99.90
3226;DHT22;1625;49.884;8.666;2022-12-22T11:01:50;11.90;99.90
3226;DHT22;1625;49.884;8.666;2022-12-22T11:04:26;11.80;99.90
3226;DHT22;1625;49.884;8.666;2022-12-22T11:06:53;11.70;99.90
3226;DHT22;1625;49.884;8.666;2022-12-22T11:09:19;11.70;99.90
3226;DHT22;1625;49.884;8.666;2022-12-22T11:11:49;11.70;99.90
3226;DHT22;1625;49.884;8.666;2022-12-22T11:14:47;11.60;99.90
3226;DHT22;1625;49.884;8.666;2022-12-22T11:23:00;11.70;99.90
3226;DHT22;1625;49.884;8.666;2022-12-22T11:25:33;11.70;99.90
3226;DHT22;1625;49.884;8.666;2022-12-22T11:33:57;11.80;99.90
3226;DHT22;1625;49.884;8.666;2022-12-22T11:36:33;11.80;99.90
3226;DHT22;1625;49.884;8.666;2022-12-22T11:39:16;11.70;99.90
3226;DHT22;1625;49.884;8.666;2022-12-22T11:47:47;11.70;99.90
3226;DHT22;1625;49.884;8.666;2022-12-22T11:50:27;11.70;99.90
3226;DHT22;1625;49.884;8.666;2022-12-22T11:52:55;11.70;99.90
3226;DHT22;1625;49.884;8.666;2022-12-22T11:55:35;11.60;99.90
3226;DHT22;1625;49.884;8.666;2022-12-22T11:58:40;11.50;99.90
3226;DHT22;1625;49.884;8.666;2022-12-22T12:04:28;11.40;99.90
3226;DHT22;1625;49.884;8.666;2022-12-22T12:10:06;11.20;99.90
3226;DHT22;1625;49.884;8.666;2022-12-22T12:15:40;11.10;99.90
3226;DHT22;1625;49.884;8.666;2022-12-22T12:18:51;11.10;99.90
3226;DHT22;1625;49.884;8.666;2022-12-22T12:29:28;11.10;99.90
3226;DHT22;1625;49.884;8.666;2022-12-22T12:32:04;11.20;99.90
3226;DHT22;1625;49.884;8.666;2022-12-22T12:34:33;11.20;99.90
3226;DHT22;1625;49.884;8.666;2022-12-22T12:37:19;11.30;99.90
3226;DHT22;1625;49.884;8.666;2022-12-22T12:39:58;11.30;99.90
3226;DHT22;1625;49.884;8.666;2022-12-22T12:42:35;11.30;99.90
3226;DHT22;1625;49.884;8.666;2022-12-22T12:45:02;11.30;99.90
3226;DHT22;1625;49.884;8.666;2022-12-22T12:47:31;11.40;99.90
3226;DHT22;1625;49.884;8.666;2022-12-22T12:50:04;11.30;99.90
3226;DHT22;1625;49.884;8.666;2022-12-22T12:58:09;11.40;99.90
3226;DHT22;1625;49.884;8.666;2022-12-22T13:03:09;11.40;99.90
3226;DHT22;1625;49.884;8.666;2022-12-22T13:05:55;11.40;99.90
3226;DHT22;1625;49.884;8.666;2022-12-22T13:08:28;11.30;99.90
3226;DHT22;1625;49.884;8.666;2022-12-22T13:23:33;11.40;99.90
3226;DHT22;1625;49.884;8.666;2022-12-22T13:26:24;11.30;99.90
3226;DHT22;1625;49.884;8.666;2022-12-22T13:29:14;11.40;99.90
3226;DHT22;1625;49.884;8.666;2022-12-22T13:31:42;11.40;99.90
3226;DHT22;1625;49.884;8.666;2022-12-22T13:34:37;11.30;99.90
3226;DHT22;1625;49.884;8.666;2022-12-22T13:37:16;11.30;99.90
3226;DHT22;1625;49.884;8.666;2022-12-22T13:40:42;11.30;99.90
3226;DHT22;1625;49.884;8.666;2022-12-22T13:42:50;11.20;99.90
3226;DHT22;1625;49.884;8.666;2022-12-22T13:47:47;11.10;99.90
3226;DHT22;1625;49.884;8.666;2022-12-22T13:50:32;11.10;99.90
3226;DHT22;1625;49.884;8.666;2022-12-22T13:53:00;11.00;99.90
3226;DHT22;1625;49.884;8.666;2022-12-22T13:55:28;10.90;99.90
3226;DHT22;1625;49.884;8.666;2022-12-22T13:57:58;10.90;99.90
3226;DHT22;1625;49.884;8.666;2022-12-22T14:00:27;11.00;99.90
3226;DHT22;1625;49.884;8.666;2022-12-22T14:02:53;10.90;99.90
3226;DHT22;1625;49.884;8.666;2022-12-22T14:05:19;10.90;99.90
3226;DHT22;1625;49.884;8.666;2022-12-22T14:08:03;10.90;99.90
3226;DHT22;1625;49.884;8.666;2022-12-22T14:10:33;10.90;99.90
3226;DHT22;1625;49.884;8.666;2022-12-22T14:13:03;11.00;99.90
3226;DHT22;1625;49.884;8.666;2022-12-22T14:15:30;11.00;99.90
3226;DHT22;1625;49.884;8.666;2022-12-22T14:17:55;11.00;99.90
3226;DHT22;1625;49.884;8.666;2022-12-22T14:20:26;11.10;99.90
3226;DHT22;1625;49.884;8.666;2022-12-22T14:23:04;11.10;99.90
3226;DHT22;1625;49.884;8.666;2022-12-22T14:25:36;11.10;99.90
3226;DHT22;1625;49.884;8.666;2022-12-22T14:28:05;11.10;99.90
3226;DHT22;1625;49.884;8.666;2022-12-22T14:30:39;11.10;99.90
3226;DHT22;1625;49.884;8.666;2022-12-22T14:35:48;11.10;99.90
3226;DHT22;1625;49.884;8.666;2022-12-22T14:38:24;11.20;99.90
3226;DHT22;1625;49.884;8.666;2022-12-22T14:40:52;11.10;99.90
3226;DHT22;1625;49.884;8.666;2022-12-22T14:45:50;11.20;99.90
3226;DHT22;1625;49.884;8.666;2022-12-22T14:48:26;11.20;99.90
3226;DHT22;1625;49.884;8.666;2022-12-22T14:50:53;11.20;99.90
3226;DHT22;1625;49.884;8.666;2022-12-22T14:53:43;11.10;99.90
3226;DHT22;1625;49.884;8.666;2022-12-22T14:56:14;11.10;99.90
3226;DHT22;1625;49.884;8.666;2022-12-22T14:58:43;11.10;99.90
3226;DHT22;1625;49.884;8.666;2022-12-22T15:01:23;11.10;99.90
3226;DHT22;1625;49.884;8.666;2022-12-22T15:04:14;11.10;99.90
3226;DHT22;1625;49.884;8.666;2022-12-22T15:06:43;11.10;99.90
3226;DHT22;1625;49.884;8.666;2022-12-22T15:11:47;11.10;99.90
3226;DHT22;1625;49.884;8.666;2022-12-22T15:14:28;11.10;99.90
3226;DHT22;1625;49.884;8.666;2022-12-22T15:16:56;11.10;99.90
3226;DHT22;1625;49.884;8.666;2022-12-22T15:19:27;11.00;99.90
3226;DHT22;1625;49.884;8.666;2022-12-22T15:21:54;11.00;99.90
3226;DHT22;1625;49.884;8.666;2022-12-22T15:24:19;11.00;99.90
3226;DHT22;1625;49.884;8.666;2022-12-22T15:26:45;11.00;99.90
3226;DHT22;1625;49.884;8.666;2022-12-22T15:29:11;11.00;99.90
3226;DHT22;1625;49.884;8.666;2022-12-22T15:31:41;11.00;99.90
3226;DHT22;1625;49.884;8.666;2022-12-22T15:34:33;11.00;99.90
3226;DHT22;1625;49.884;8.666;2022-12-22T15:36:59;11.00;99.90
3226;DHT22;1625;49.884;8.666;2022-12-22T15:39:24;11.00;99.90
3226;DHT22;1625;49.884;8.666;2022-12-22T15:41:50;11.00;99.90
3226;DHT22;1625;49.884;8.666;2022-12-22T15:44:16;11.00;99.90
3226;DHT22;1625;49.884;8.666;2022-12-22T15:46:43;11.00;99.90
3226;DHT22;1625;49.884;8.666;2022-12-22T15:49:22;11.00;99.90
3226;DHT22;1625;49.884;8.666;2022-12-22T15:51:51;11.00;99.90
3226;DHT22;1625;49.884;8.666;2022-12-22T15:54:25;11.00;99.90
3226;DHT22;1625;49.884;8.666;2022-12-22T15:56:52;11.00;99.90
3226;DHT22;1625;49.884;8.666;2022-12-22T15:59:21;11.00;99.90
3226;DHT22;1625;49.884;8.666;2022-12-22T16:01:47;11.00;99.90
3226;DHT22;1625;49.884;8.666;2022-12-22T16:04:15;11.00;99.90
3226;DHT22;1625;49.884;8.666;2022-12-22T16:06:41;11.00;99.90
3226;DHT22;1625;49.884;8.666;2022-12-22T16:09:18;11.00;99.90
3226;DHT22;1625;49.884;8.666;2022-12-22T16:11:45;11.00;99.90
3226;DHT22;1625;49.884;8.666;2022-12-22T16:14:12;11.00;99.90
3226;DHT22;1625;49.884;8.666;2022-12-22T16:16:37;11.00;99.90
3226;DHT22;1625;49.884;8.666;2022-12-22T16:19:04;10.90;99.90
3226;DHT22;1625;49.884;8.666;2022-12-22T16:21:30;10.90;99.90
3226;DHT22;1625;49.884;8.666;2022-12-22T16:23:57;11.00;99.90
3226;DHT22;1625;49.884;8.666;2022-12-22T16:26:25;10.90;99.90
3226;DHT22;1625;49.884;8.666;2022-12-22T16:28:51;10.80;99.90
3226;DHT22;1625;49.884;8.666;2022-12-22T16:31:24;10.90;99.90
3226;DHT22;1625;49.884;8.666;2022-12-22T16:33:56;10.90;99.90
3226;DHT22;1625;49.884;8.666;2022-12-22T16:36:21;10.80;99.90
3226;DHT22;1625;49.884;8.666;2022-12-22T16:38:47;10.80;99.90
3226;DHT22;1625;49.884;8.666;2022-12-22T16:41:23;10.70;99.90
3226;DHT22;1625;49.884;8.666;2022-12-22T16:43:51;10.80;99.90
3226;DHT22;1625;49.884;8.666;2022-12-22T16:46:19;10.80;99.90
3226;DHT22;1625;49.884;8.666;2022-12-22T16:48:54;10.80;99.90
3226;DHT22;1625;49.884;8.666;2022-12-22T16:51:29;10.90;99.90
3226;DHT22;1625;49.884;8.666;2022-12-22T16:54:03;10.80;99.90
3226;DHT22;1625;49.884;8.666;2022-12-22T16:56:34;10.80;99.90
3226;DHT22;1625;49.884;8.666;2022-12-22T16:59:00;10.80;99.90
3226;DHT22;1625;49.884;8.666;2022-12-22T17:01:54;10.90;99.90
3226;DHT22;1625;49.884;8.666;2022-12-22T17:04:28;10.90;99.90
3226;DHT22;1625;49.884;8.666;2022-12-22T17:06:54;10.90;99.90
3226;DHT22;1625;49.884;8.666;2022-12-22T17:09:31;10.90;99.90
3226;DHT22;1625;49.884;8.666;2022-12-22T17:11:59;10.90;99.90
3226;DHT22;1625;49.884;8.666;2022-12-22T17:14:35;10.90;99.90
3226;DHT22;1625;49.884;8.666;2022-12-22T17:17:01;10.90;99.90
3226;DHT22;1625;49.884;8.666;2022-12-22T17:19:28;10.80;99.90
3226;DHT22;1625;49.884;8.666;2022-12-22T17:21:54;10.80;99.90
3226;DHT22;1625;49.884;8.666;2022-12-22T17:24:22;10.80;99.90
3226;DHT22;1625;49.884;8.666;2022-12-22T17:26:48;10.80;99.90
3226;DHT22;1625;49.884;8.666;2022-12-22T17:29:21;10.90;99.90
3226;DHT22;1625;49.884;8.666;2022-12-22T17:31:50;10.90;99.90
3226;DHT22;1625;49.884;8.666;2022-12-22T17:34:20;10.90;99.90
3226;DHT22;1625;49.884;8.666;2022-12-22T17:36:47;10.90;99.90
3226;DHT22;1625;49.884;8.666;2022-12-22T17:39:18;10.90;99.90
3226;DHT22;1625;49.884;8.666;2022-12-22T17:41:45;10.80;99.90
3226;DHT22;1625;49.884;8.666;2022-12-22T17:44:16;10.80;99.90
3226;DHT22;1625;49.884;8.666;2022-12-22T17:46:43;10.90;99.90
3226;DHT22;1625;49.884;8.666;2022-12-22T17:49:08;10.80;99.90
3226;DHT22;1625;49.884;8.666;2022-12-22T17:51:34;10.80;99.90
3226;DHT22;1625;49.884;8.666;2022-12-22T17:54:00;10.80;99.90
3226;DHT22;1625;49.884;8.666;2022-12-22T17:56:26;10.80;99.90
3226;DHT22;1625;49.884;8.666;2022-12-22T17:58:53;10.80;99.90
3226;DHT22;1625;49.884;8.666;2022-12-22T18:03:45;10.90;99.90
3226;DHT22;1625;49.884;8.666;2022-12-22T18:06:11;10.90;99.90
3226;DHT22;1625;49.884;8.666;2022-12-22T18:08:38;11.00;99.90
3226;DHT22;1625;49.884;8.666;2022-12-22T18:11:04;10.90;99.90
3226;DHT22;1625;49.884;8.666;2022-12-22T18:13:41;10.90;99.90
3226;DHT22;1625;49.884;8.666;2022-12-22T18:16:13;10.90;99.90
3226;DHT22;1625;49.884;8.666;2022-12-22T18:18:43;11.00;99.90
3226;DHT22;1625;49.884;8.666;2022-12-22T18:21:28;11.00;99.90
3226;DHT22;1625;49.884;8.666;2022-12-22T18:23:54;10.90;99.90
3226;DHT22;1625;49.884;8.666;2022-12-22T18:26:28;11.00;99.90
3226;DHT22;1625;49.884;8.666;2022-12-22T18:28:54;11.00;99.90
3226;DHT22;1625;49.884;8.666;2022-12-22T18:31:21;11.00;99.90
3226;DHT22;1625;49.884;8.666;2022-12-22T18:33:47;11.00;99.90
3226;DHT22;1625;49.884;8.666;2022-12-22T18:36:18;11.00;99.90
3226;DHT22;1625;49.884;8.666;2022-12-22T18:38:45;11.00;99.90
3226;DHT22;1625;49.884;8.666;2022-12-22T18:41:17;11.00;99.90
3226;DHT22;1625;49.884;8.666;2022-12-22T18:43:44;11.10;99.90
3226;DHT22;1625;49.884;8.666;2022-12-22T18:46:10;11.10;99.90
3226;DHT22;1625;49.884;8.666;2022-12-22T18:48:35;11.00;99.90
3226;DHT22;1625;49.884;8.666;2022-12-22T18:51:01;11.00;99.90
3226;DHT22;1625;49.884;8.666;2022-12-22T18:53:30;11.00;99.90
3226;DHT22;1625;49.884;8.666;2022-12-22T18:55:56;11.00;99.90
3226;DHT22;1625;49.884;8.666;2022-12-22T18:58:23;11.00;99.90
3226;DHT22;1625;49.884;8.666;2022-12-22T19:00:50;11.00;99.90
3226;DHT22;1625;49.884;8.666;2022-12-22T19:03:22;11.10;99.90
3226;DHT22;1625;49.884;8.666;2022-12-22T19:05:49;11.00;99.90
3226;DHT22;1625;49.884;8.666;2022-12-22T19:08:17;11.00;99.90
3226;DHT22;1625;49.884;8.666;2022-12-22T19:10:48;11.10;99.90
3226;DHT22;1625;49.884;8.666;2022-12-22T19:13:29;11.10;99.90
3226;DHT22;1625;49.884;8.666;2022-12-22T19:15:55;11.10;99.90
3226;DHT22;1625;49.884;8.666;2022-12-22T19:18:22;11.10;99.90
3226;DHT22;1625;49.884;8.666;2022-12-22T19:20:48;11.10;99.90
3226;DHT22;1625;49.884;8.666;2022-12-22T19:23:15;11.10;99.90
3226;DHT22;1625;49.884;8.666;2022-12-22T19:25:46;11.10;99.90
3226;DHT22;1625;49.884;8.666;2022-12-22T19:28:23;11.10;99.90
3226;DHT22;1625;49.884;8.666;2022-12-22T19:30:49;11.10;99.90
3226;DHT22;1625;49.884;8.666;2022-12-22T19:33:29;11.10;99.90
3226;DHT22;1625;49.884;8.666;2022-12-22T19:35:56;11.10;99.90
3226;DHT22;1625;49.884;8.666;2022-12-22T19:38:23;11.10;99.90
3226;DHT22;1625;49.884;8.666;2022-12-22T19:40:52;11.10;99.90
3226;DHT22;1625;49.884;8.666;2022-12-22T19:43:19;11.00;99.90
3226;DHT22;1625;49.884;8.666;2022-12-22T19:45:48;11.00;99.90
3226;DHT22;1625;49.884;8.666;2022-12-22T19:48:16;11.10;99.90
3226;DHT22;1625;49.884;8.666;2022-12-22T19:50:44;11.00;99.90
3226;DHT22;1625;49.884;8.666;2022-12-22T19:53:10;11.00;99.90
3226;DHT22;1625;49.884;8.666;2022-12-22T19:55:47;11.10;99.90
3226;DHT22;1625;49.884;8.666;2022-12-22T19:58:17;11.10;99.90
3226;DHT22;1625;49.884;8.666;2022-12-22T20:00:44;11.00;99.90
3226;DHT22;1625;49.884;8.666;2022-12-22T20:03:10;11.00;99.90
3226;DHT22;1625;49.884;8.666;2022-12-22T20:05:38;11.00;99.90
3226;DHT22;1625;49.884;8.666;2022-12-22T20:08:03;11.00;99.90
3226;DHT22;1625;49.884;8.666;2022-12-22T20:10:30;11.00;99.90
3226;DHT22;1625;49.884;8.666;2022-12-22T20:13:02;11.00;99.90
3226;DHT22;1625;49.884;8.666;2022-12-22T20:15:35;11.00;99.90
3226;DHT22;1625;49.884;8.666;2022-12-22T20:18:10;11.00;99.90
3226;DHT22;1625;49.884;8.666;2022-12-22T20:20:37;11.00;99.90
3226;DHT22;1625;49.884;8.666;2022-12-22T20:23:17;11.00;99.90
3226;DHT22;1625;49.884;8.666;2022-12-22T20:25:49;11.00;99.90
3226;DHT22;1625;49.884;8.666;2022-12-22T20:28:21;11.00;99.90
3226;DHT22;1625;49.884;8.666;2022-12-22T20:30:48;11.00;99.90
3226;DHT22;1625;49.884;8.666;2022-12-22T20:33:15;11.00;99.90
3226;DHT22;1625;49.884;8.666;2022-12-22T20:35:41;10.90;99.90
3226;DHT22;1625;49.884;8.666;2022-12-22T20:40:48;10.90;99.90
3226;DHT22;1625;49.884;8.666;2022-12-22T20:43:17;10.90;99.90
3226;DHT22;1625;49.884;8.666;2022-12-22T20:45:44;10.90;99.90
3226;DHT22;1625;49.884;8.666;2022-12-22T20:48:18;10.90;99.90
3226;DHT22;1625;49.884;8.666;2022-12-22T20:50:44;10.90;99.90
3226;DHT22;1625;49.884;8.666;2022-12-22T20:53:14;10.90;99.90
3226;DHT22;1625;49.884;8.666;2022-12-22T20:55:40;10.90;99.90
3226;DHT22;1625;49.884;8.666;2022-12-22T20:58:20;10.80;99.90
3226;DHT22;1625;49.884;8.666;2022-12-22T21:00:50;10.80;99.90
3226;DHT22;1625;49.884;8.666;2022-12-22T21:03:16;10.80;99.90
3226;DHT22;1625;49.884;8.666;2022-12-22T21:08:15;10.80;99.90
3226;DHT22;1625;49.884;8.666;2022-12-22T21:10:43;10.90;99.90
3226;DHT22;1625;49.884;8.666;2022-12-22T21:13:09;10.80;99.90
3226;DHT22;1625;49.884;8.666;2022-12-22T21:15:36;10.80;99.90
3226;DHT22;1625;49.884;8.666;2022-12-22T21:18:22;10.90;99.90
3226;DHT22;1625;49.884;8.666;2022-12-22T21:21:52;11.00;99.90
3226;DHT22;1625;49.884;8.666;2022-12-22T21:24:38;11.00;99.90
3226;DHT22;1625;49.884;8.666;2022-12-22T21:27:05;11.00;99.90
3226;DHT22;1625;49.884;8.666;2022-12-22T21:29:32;11.00;99.90
3226;DHT22;1625;49.884;8.666;2022-12-22T21:31:58;10.90;99.90
3226;DHT22;1625;49.884;8.666;2022-12-22T21:34:24;10.90;99.90
3226;DHT22;1625;49.884;8.666;2022-12-22T21:36:57;10.90;99.90
3226;DHT22;1625;49.884;8.666;2022-12-22T21:39:34;10.90;99.90
3226;DHT22;1625;49.884;8.666;2022-12-22T21:42:03;10.90;99.90
3226;DHT22;1625;49.884;8.666;2022-12-22T21:44:31;10.90;99.90
3226;DHT22;1625;49.884;8.666;2022-12-22T21:46:58;10.90;99.90
3226;DHT22;1625;49.884;8.666;2022-12-22T21:49:26;10.90;99.90
3226;DHT22;1625;49.884;8.666;2022-12-22T21:51:52;10.90;99.90
3226;DHT22;1625;49.884;8.666;2022-12-22T21:54:19;10.90;99.90
3226;DHT22;1625;49.884;8.666;2022-12-22T21:56:45;10.90;99.90
3226;DHT22;1625;49.884;8.666;2022-12-22T21:59:11;10.90;99.90
3226;DHT22;1625;49.884;8.666;2022-12-22T22:01:36;10.90;99.90
3226;DHT22;1625;49.884;8.666;2022-12-22T22:04:02;10.90;99.90
3226;DHT22;1625;49.884;8.666;2022-12-22T22:06:28;10.90;99.90
3226;DHT22;1625;49.884;8.666;2022-12-22T22:08:53;10.80;99.90
3226;DHT22;1625;49.884;8.666;2022-12-22T22:11:22;10.80;99.90
3226;DHT22;1625;49.884;8.666;2022-12-22T22:13:48;10.80;99.90
3226;DHT22;1625;49.884;8.666;2022-12-22T22:16:14;10.90;99.90
3226;DHT22;1625;49.884;8.666;2022-12-22T22:18:40;10.90;99.90
3226;DHT22;1625;49.884;8.666;2022-12-22T22:21:07;10.90;99.90
3226;DHT22;1625;49.884;8.666;2022-12-22T22:23:33;10.90;99.90
3226;DHT22;1625;49.884;8.666;2022-12-22T22:25:59;10.90;99.90
3226;DHT22;1625;49.884;8.666;2022-12-22T22:28:24;10.90;99.90
3226;DHT22;1625;49.884;8.666;2022-12-22T22:30:50;10.90;99.90
3226;DHT22;1625;49.884;8.666;2022-12-22T22:33:16;10.90;99.90
3226;DHT22;1625;49.884;8.666;2022-12-22T22:35:41;10.90;99.90
3226;DHT22;1625;49.884;8.666;2022-12-22T22:38:25;10.90;99.90
3226;DHT22;1625;49.884;8.666;2022-12-22T22:40:50;10.90;99.90
3226;DHT22;1625;49.884;8.666;2022-12-22T22:43:16;10.90;99.90
3226;DHT22;1625;49.884;8.666;2022-12-22T22:45:42;10.90;99.90
3226;DHT22;1625;49.884;8.666;2022-12-22T22:48:17;10.90;99.90
3226;DHT22;1625;49.884;8.666;2022-12-22T22:50:43;10.90;99.90
3226;DHT22;1625;49.884;8.666;2022-12-22T22:53:09;10.90;99.90
3226;DHT22;1625;49.884;8.666;2022-12-22T22:55:34;11.00;99.90
3226;DHT22;1625;49.884;8.666;2022-12-22T22:58:00;11.00;99.90
3226;DHT22;1625;49.884;8.666;2022-12-22T23:00:25;11.00;99.90
3226;DHT22;1625;49.884;8.666;2022-12-22T23:02:51;10.90;99.90
3226;DHT22;1625;49.884;8.666;2022-12-22T23:05:17;10.90;99.90
3226;DHT22;1625;49.884;8.666;2022-12-22T23:07:42;11.00;99.90
3226;DHT22;1625;49.884;8.666;2022-12-22T23:10:08;11.00;99.90
3226;DHT22;1625;49.884;8.666;2022-12-22T23:12:34;10.90;99.90
3226;DHT22;1625;49.884;8.666;2022-12-22T23:14:59;10.90;99.90
3226;DHT22;1625;49.884;8.666;2022-12-22T23:17:26;11.00;99.90
3226;DHT22;1625;49.884;8.666;2022-12-22T23:19:52;11.00;99.90
3226;DHT22;1625;49.884;8.666;2022-12-22T23:22:17;11.00;99.90
3226;DHT22;1625;49.884;8.666;2022-12-22T23:24:43;10.90;99.90
3226;DHT22;1625;49.884;8.666;2022-12-22T23:27:08;11.00;99.90
3226;DHT22;1625;49.884;8.666;2022-12-22T23:29:35;10.90;99.90
3226;DHT22;1625;49.884;8.666;2022-12-22T23:32:00;10.90;99.90
3226;DHT22;1625;49.884;8.666;2022-12-22T23:34:26;10.90;99.90
3226;DHT22;1625;49.884;8.666;2022-12-22T23:36:51;10.90;99.90
3226;DHT22;1625;49.884;8.666;2022-12-22T23:39:17;10.90;99.90
3226;DHT22;1625;49.884;8.666;2022-12-22T23:41:43;10.90;99.90
3226;DHT22;1625;49.884;8.666;2022-12-22T23:44:08;10.90;99.90
3226;DHT22;1625;49.884;8.666;2022-12-22T23:46:34;10.90;99.90
3226;DHT22;1625;49.884;8.666;2022-12-22T23:48:59;10.90;99.90
3226;DHT22;1625;49.884;8.666;2022-12-22T23:51:26;10.90;99.90
3226;DHT22;1625;49.884;8.666;2022-12-22T23:53:53;10.90;99.90
3226;DHT22;1625;49.884;8.666;2022-12-22T23:56:24;10.90;99.90
3226;DHT22;1625;49.884;8.666;2022-12-22T23:58:49;10.90;99.90
